sensor_id;sensor_type;location;lat;lon;timestamp;temperature;humidity
39099;DHT22;24844;52.380;7.018;2023-08-06T00:02:13;14.30;99.90
39099;DHT22;24844;52.380;7.018;2023-08-06T00:04:39;14.20;99.90
39099;DHT22;24844;52.380;7.018;2023-08-06T00:07:04;14.20;99.90
39099;DHT22;24844;52.380;7.018;2023-08-06T00:09:30;14.20;99.90
39099;DHT22;24844;52.380;7.018;2023-08-06T00:11:56;14.20;99.90
39099;DHT22;24844;52.380;7.018;2023-08-06T00:14:21;14.20;99.90
39099;DHT22;24844;52.380;7.018;2023-08-06T00:16:47;14.30;99.90
39099;DHT22;24844;52.380;7.018;2023-08-06T00:19:13;14.50;99.90
39099;DHT22;24844;52.380;7.018;2023-08-06T00:21:38;14.50;99.90
39099;DHT22;24844;52.380;7.018;2023-08-06T00:24:04;14.50;99.90
39099;DHT22;24844;52.380;7.018;2023-08-06T00:26:30;14.50;99.90
39099;DHT22;24844;52.380;7.018;2023-08-06T00:28:55;14.50;99.90
39099;DHT22;24844;52.380;7.018;2023-08-06T00:31:21;14.60;99.90
39099;DHT22;24844;52.380;7.018;2023-08-06T00:33:46;14.90;99.90
39099;DHT22;24844;52.380;7.018;2023-08-06T00:36:12;14.80;99.90
39099;DHT22;24844;52.380;7.018;2023-08-06T00:38:37;14.60;99.90
39099;DHT22;24844;52.380;7.018;2023-08-06T00:41:03;14.70;99.90
39099;DHT22;24844;52.380;7.018;2023-08-06T00:43:29;14.40;99.90
39099;DHT22;24844;52.380;7.018;2023-08-06T00:45:54;14.50;99.90
39099;DHT22;24844;52.380;7.018;2023-08-06T00:48:21;14.60;99.90
39099;DHT22;24844;52.380;7.018;2023-08-06T00:50:46;14.90;99.90
39099;DHT22;24844;52.380;7.018;2023-08-06T00:53:13;15.00;99.90
39099;DHT22;24844;52.380;7.018;2023-08-06T00:55:39;14.90;99.90
39099;DHT22;24844;52.380;7.018;2023-08-06T00:58:05;15.00;99.90
39099;DHT22;24844;52.380;7.018;2023-08-06T01:00:30;14.70;99.90
39099;DHT22;24844;52.380;7.018;2023-08-06T01:02:56;14.60;99.90
39099;DHT22;24844;52.380;7.018;2023-08-06T01:05:22;14.50;99.90
39099;DHT22;24844;52.380;7.018;2023-08-06T01:08:03;14.50;99.90
39099;DHT22;24844;52.380;7.018;2023-08-06T01:10:40;14.30;99.90
39099;DHT22;24844;52.380;7.018;2023-08-06T01:13:23;14.30;99.90
39099;DHT22;24844;52.380;7.018;2023-08-06T01:15:54;14.40;99.90
39099;DHT22;24844;52.380;7.018;2023-08-06T01:18:22;14.40;99.90
39099;DHT22;24844;52.380;7.018;2023-08-06T01:20:48;14.70;99.90
39099;DHT22;24844;52.380;7.018;2023-08-06T01:23:15;14.70;99.90
39099;DHT22;24844;52.380;7.018;2023-08-06T01:28:46;14.60;99.90
39099;DHT22;24844;52.380;7.018;2023-08-06T01:31:50;14.60;99.90
39099;DHT22;24844;52.380;7.018;2023-08-06T01:34:13;14.80;99.90
39099;DHT22;24844;52.380;7.018;2023-08-06T01:36:40;14.60;99.90
39099;DHT22;24844;52.380;7.018;2023-08-06T01:39:07;14.60;99.90
39099;DHT22;24844;52.380;7.018;2023-08-06T01:41:32;14.80;99.90
39099;DHT22;24844;52.380;7.018;2023-08-06T01:43:58;14.80;99.90
39099;DHT22;24844;52.380;7.018;2023-08-06T01:46:24;15.00;99.90
39099;DHT22;24844;52.380;7.018;2023-08-06T01:48:49;14.90;99.90
39099;DHT22;24844;52.380;7.018;2023-08-06T01:51:15;15.00;99.90
39099;DHT22;24844;52.380;7.018;2023-08-06T01:53:40;15.00;99.90
39099;DHT22;24844;52.380;7.018;2023-08-06T01:56:06;15.20;99.90
39099;DHT22;24844;52.380;7.018;2023-08-06T01:58:31;15.10;99.90
39099;DHT22;24844;52.380;7.018;2023-08-06T02:00:57;15.20;99.90
39099;DHT22;24844;52.380;7.018;2023-08-06T02:03:23;15.20;99.90
39099;DHT22;24844;52.380;7.018;2023-08-06T02:05:48;15.00;99.90
39099;DHT22;24844;52.380;7.018;2023-08-06T02:08:14;14.90;99.90
39099;DHT22;24844;52.380;7.018;2023-08-06T02:10:39;14.90;99.90
39099;DHT22;24844;52.380;7.018;2023-08-06T02:13:06;14.70;99.90
39099;DHT22;24844;52.380;7.018;2023-08-06T02:15:32;14.80;99.90
39099;DHT22;24844;52.380;7.018;2023-08-06T02:17:58;14.60;99.90
39099;DHT22;24844;52.380;7.018;2023-08-06T02:20:23;14.70;99.90
39099;DHT22;24844;52.380;7.018;2023-08-06T02:22:49;14.80;99.90
39099;DHT22;24844;52.380;7.018;2023-08-06T02:25:14;14.70;99.90
39099;DHT22;24844;52.380;7.018;2023-08-06T02:27:40;14.80;99.90
39099;DHT22;24844;52.380;7.018;2023-08-06T02:30:06;14.80;99.90
39099;DHT22;24844;52.380;7.018;2023-08-06T02:32:32;14.90;99.90
39099;DHT22;24844;52.380;7.018;2023-08-06T02:34:58;15.00;99.90
39099;DHT22;24844;52.380;7.018;2023-08-06T02:37:24;14.90;99.90
39099;DHT22;24844;52.380;7.018;2023-08-06T02:39:49;15.00;99.90
39099;DHT22;24844;52.380;7.018;2023-08-06T02:42:15;15.00;99.90
39099;DHT22;24844;52.380;7.018;2023-08-06T02:44:40;15.10;99.90
39099;DHT22;24844;52.380;7.018;2023-08-06T02:47:06;15.00;99.90
39099;DHT22;24844;52.380;7.018;2023-08-06T02:49:31;15.10;99.90
39099;DHT22;24844;52.380;7.018;2023-08-06T02:51:57;14.90;99.90
39099;DHT22;24844;52.380;7.018;2023-08-06T02:54:22;14.90;99.90
39099;DHT22;24844;52.380;7.018;2023-08-06T02:56:48;14.90;99.90
39099;DHT22;24844;52.380;7.018;2023-08-06T02:59:14;15.00;99.90
39099;DHT22;24844;52.380;7.018;2023-08-06T03:01:39;14.90;99.90
39099;DHT22;24844;52.380;7.018;2023-08-06T03:04:05;14.90;99.90
39099;DHT22;24844;52.380;7.018;2023-08-06T03:06:31;14.90;99.90
39099;DHT22;24844;52.380;7.018;2023-08-06T03:08:57;14.90;99.90
39099;DHT22;24844;52.380;7.018;2023-08-06T03:11:23;14.90;99.90
39099;DHT22;24844;52.380;7.018;2023-08-06T03:13:48;14.90;99.90
39099;DHT22;24844;52.380;7.018;2023-08-06T03:16:14;14.90;99.90
39099;DHT22;24844;52.380;7.018;2023-08-06T03:18:40;14.90;99.90
39099;DHT22;24844;52.380;7.018;2023-08-06T03:21:06;15.00;99.90
39099;DHT22;24844;52.380;7.018;2023-08-06T03:23:31;14.90;99.90
39099;DHT22;24844;52.380;7.018;2023-08-06T03:26:03;14.70;99.90
39099;DHT22;24844;52.380;7.018;2023-08-06T03:28:29;14.80;99.90
39099;DHT22;24844;52.380;7.018;2023-08-06T03:31:04;14.80;99.90
39099;DHT22;24844;52.380;7.018;2023-08-06T03:33:30;14.80;99.90
39099;DHT22;24844;52.380;7.018;2023-08-06T03:35:56;14.80;99.90
39099;DHT22;24844;52.380;7.018;2023-08-06T03:38:22;14.80;99.90
39099;DHT22;24844;52.380;7.018;2023-08-06T03:40:48;14.60;99.90
39099;DHT22;24844;52.380;7.018;2023-08-06T03:43:14;14.60;99.90
39099;DHT22;24844;52.380;7.018;2023-08-06T03:45:40;14.80;99.90
39099;DHT22;24844;52.380;7.018;2023-08-06T03:48:06;14.60;99.90
39099;DHT22;24844;52.380;7.018;2023-08-06T03:50:32;14.80;99.90
39099;DHT22;24844;52.380;7.018;2023-08-06T03:52:57;14.90;99.90
39099;DHT22;24844;52.380;7.018;2023-08-06T03:55:23;14.70;99.90
39099;DHT22;24844;52.380;7.018;2023-08-06T03:57:48;14.70;99.90
39099;DHT22;24844;52.380;7.018;2023-08-06T04:00:14;14.90;99.90
39099;DHT22;24844;52.380;7.018;2023-08-06T04:02:40;14.90;99.90
39099;DHT22;24844;52.380;7.018;2023-08-06T04:05:05;14.90;99.90
39099;DHT22;24844;52.380;7.018;2023-08-06T04:07:31;15.10;99.90
39099;DHT22;24844;52.380;7.018;2023-08-06T04:09:58;15.10;99.90
39099;DHT22;24844;52.380;7.018;2023-08-06T04:12:24;15.00;99.90
39099;DHT22;24844;52.380;7.018;2023-08-06T04:14:51;15.00;99.90
39099;DHT22;24844;52.380;7.018;2023-08-06T04:17:20;15.10;99.90
39099;DHT22;24844;52.380;7.018;2023-08-06T04:19:51;15.10;99.90
39099;DHT22;24844;52.380;7.018;2023-08-06T04:22:17;15.10;99.90
39099;DHT22;24844;52.380;7.018;2023-08-06T04:24:42;15.20;99.90
39099;DHT22;24844;52.380;7.018;2023-08-06T04:27:09;15.00;99.90
39099;DHT22;24844;52.380;7.018;2023-08-06T04:29:35;15.10;99.90
39099;DHT22;24844;52.380;7.018;2023-08-06T04:32:01;15.10;99.90
39099;DHT22;24844;52.380;7.018;2023-08-06T04:34:26;15.20;99.90
39099;DHT22;24844;52.380;7.018;2023-08-06T04:36:52;15.20;99.90
39099;DHT22;24844;52.380;7.018;2023-08-06T04:39:17;15.20;99.90
39099;DHT22;24844;52.380;7.018;2023-08-06T04:41:43;15.20;99.90
39099;DHT22;24844;52.380;7.018;2023-08-06T04:44:09;15.40;99.90
39099;DHT22;24844;52.380;7.018;2023-08-06T04:46:34;15.40;99.90
39099;DHT22;24844;52.380;7.018;2023-08-06T04:49:00;15.40;99.90
39099;DHT22;24844;52.380;7.018;2023-08-06T04:51:25;15.50;99.90
39099;DHT22;24844;52.380;7.018;2023-08-06T04:53:51;15.40;99.90
39099;DHT22;24844;52.380;7.018;2023-08-06T04:56:16;15.50;99.90
39099;DHT22;24844;52.380;7.018;2023-08-06T04:58:42;15.50;99.90
39099;DHT22;24844;52.380;7.018;2023-08-06T05:01:07;15.80;99.90
39099;DHT22;24844;52.380;7.018;2023-08-06T05:03:33;15.90;99.90
39099;DHT22;24844;52.380;7.018;2023-08-06T05:05:58;15.60;99.90
39099;DHT22;24844;52.380;7.018;2023-08-06T05:08:24;15.90;99.90
39099;DHT22;24844;52.380;7.018;2023-08-06T05:10:50;16.20;99.90
39099;DHT22;24844;52.380;7.018;2023-08-06T05:13:15;16.00;99.90
39099;DHT22;24844;52.380;7.018;2023-08-06T05:15:41;16.30;99.90
39099;DHT22;24844;52.380;7.018;2023-08-06T05:18:08;16.40;99.90
39099;DHT22;24844;52.380;7.018;2023-08-06T05:20:37;16.70;99.90
39099;DHT22;24844;52.380;7.018;2023-08-06T05:23:03;16.70;99.90
39099;DHT22;24844;52.380;7.018;2023-08-06T05:25:29;16.50;99.90
39099;DHT22;24844;52.380;7.018;2023-08-06T05:27:55;16.80;99.90
39099;DHT22;24844;52.380;7.018;2023-08-06T05:30:21;17.30;99.90
39099;DHT22;24844;52.380;7.018;2023-08-06T05:32:46;17.50;99.90
39099;DHT22;24844;52.380;7.018;2023-08-06T05:35:12;16.90;99.90
39099;DHT22;24844;52.380;7.018;2023-08-06T05:37:38;17.30;99.90
39099;DHT22;24844;52.380;7.018;2023-08-06T05:40:03;17.10;99.90
39099;DHT22;24844;52.380;7.018;2023-08-06T05:42:29;17.10;99.90
39099;DHT22;24844;52.380;7.018;2023-08-06T05:44:55;16.70;99.90
39099;DHT22;24844;52.380;7.018;2023-08-06T05:47:20;16.60;99.90
39099;DHT22;24844;52.380;7.018;2023-08-06T05:49:46;16.10;99.90
39099;DHT22;24844;52.380;7.018;2023-08-06T05:52:12;16.00;99.90
39099;DHT22;24844;52.380;7.018;2023-08-06T05:54:37;16.20;99.90
39099;DHT22;24844;52.380;7.018;2023-08-06T05:57:03;16.40;99.90
39099;DHT22;24844;52.380;7.018;2023-08-06T05:59:29;16.50;99.90
39099;DHT22;24844;52.380;7.018;2023-08-06T06:01:54;16.60;99.90
39099;DHT22;24844;52.380;7.018;2023-08-06T06:04:20;17.30;99.90
39099;DHT22;24844;52.380;7.018;2023-08-06T06:06:46;17.40;99.90
39099;DHT22;24844;52.380;7.018;2023-08-06T06:09:12;17.20;99.90
39099;DHT22;24844;52.380;7.018;2023-08-06T06:11:37;17.60;99.90
39099;DHT22;24844;52.380;7.018;2023-08-06T06:14:03;17.30;99.90
39099;DHT22;24844;52.380;7.018;2023-08-06T06:16:28;17.50;99.90
39099;DHT22;24844;52.380;7.018;2023-08-06T06:18:54;17.50;99.90
39099;DHT22;24844;52.380;7.018;2023-08-06T06:21:20;17.40;99.90
39099;DHT22;24844;52.380;7.018;2023-08-06T06:23:45;17.60;99.90
39099;DHT22;24844;52.380;7.018;2023-08-06T06:26:11;17.50;99.90
39099;DHT22;24844;52.380;7.018;2023-08-06T06:28:38;16.90;99.90
39099;DHT22;24844;52.380;7.018;2023-08-06T06:31:03;17.20;99.90
39099;DHT22;24844;52.380;7.018;2023-08-06T06:33:29;17.40;99.90
39099;DHT22;24844;52.380;7.018;2023-08-06T06:35:55;17.20;99.90
39099;DHT22;24844;52.380;7.018;2023-08-06T06:38:20;17.00;99.90
39099;DHT22;24844;52.380;7.018;2023-08-06T06:40:58;17.00;99.90
39099;DHT22;24844;52.380;7.018;2023-08-06T06:43:24;17.00;99.90
39099;DHT22;24844;52.380;7.018;2023-08-06T06:45:55;17.00;99.90
39099;DHT22;24844;52.380;7.018;2023-08-06T06:48:21;17.10;99.90
39099;DHT22;24844;52.380;7.018;2023-08-06T06:50:49;17.00;99.90
39099;DHT22;24844;52.380;7.018;2023-08-06T06:53:15;16.90;99.90
39099;DHT22;24844;52.380;7.018;2023-08-06T06:55:41;16.60;99.90
39099;DHT22;24844;52.380;7.018;2023-08-06T06:58:06;16.60;99.90
39099;DHT22;24844;52.380;7.018;2023-08-06T07:00:32;16.80;99.90
39099;DHT22;24844;52.380;7.018;2023-08-06T07:02:57;16.90;99.90
39099;DHT22;24844;52.380;7.018;2023-08-06T07:05:23;16.90;99.90
39099;DHT22;24844;52.380;7.018;2023-08-06T07:07:48;16.90;99.90
39099;DHT22;24844;52.380;7.018;2023-08-06T07:10:14;16.80;99.90
39099;DHT22;24844;52.380;7.018;2023-08-06T07:12:40;17.00;99.90
39099;DHT22;24844;52.380;7.018;2023-08-06T07:15:06;17.10;99.90
39099;DHT22;24844;52.380;7.018;2023-08-06T07:17:32;17.10;99.90
39099;DHT22;24844;52.380;7.018;2023-08-06T07:19:57;17.10;99.90
39099;DHT22;24844;52.380;7.018;2023-08-06T07:22:23;17.20;99.90
39099;DHT22;24844;52.380;7.018;2023-08-06T07:24:49;17.10;99.90
39099;DHT22;24844;52.380;7.018;2023-08-06T07:27:14;17.10;99.90
39099;DHT22;24844;52.380;7.018;2023-08-06T07:29:40;17.20;99.90
39099;DHT22;24844;52.380;7.018;2023-08-06T07:32:07;17.10;99.90
39099;DHT22;24844;52.380;7.018;2023-08-06T07:34:32;17.10;99.90
39099;DHT22;24844;52.380;7.018;2023-08-06T07:36:58;17.00;99.90
39099;DHT22;24844;52.380;7.018;2023-08-06T07:39:24;16.90;99.90
39099;DHT22;24844;52.380;7.018;2023-08-06T07:41:50;16.90;99.90
39099;DHT22;24844;52.380;7.018;2023-08-06T07:44:15;17.00;99.90
39099;DHT22;24844;52.380;7.018;2023-08-06T07:46:41;17.00;99.90
39099;DHT22;24844;52.380;7.018;2023-08-06T07:49:08;17.10;99.90
39099;DHT22;24844;52.380;7.018;2023-08-06T07:51:33;17.30;99.90
39099;DHT22;24844;52.380;7.018;2023-08-06T07:53:59;17.20;99.90
39099;DHT22;24844;52.380;7.018;2023-08-06T07:56:25;17.10;99.90
39099;DHT22;24844;52.380;7.018;2023-08-06T07:58:50;17.10;99.90
39099;DHT22;24844;52.380;7.018;2023-08-06T08:01:16;17.00;99.90
39099;DHT22;24844;52.380;7.018;2023-08-06T08:03:41;17.10;99.90
39099;DHT22;24844;52.380;7.018;2023-08-06T08:06:07;16.90;99.90
39099;DHT22;24844;52.380;7.018;2023-08-06T08:08:32;17.00;99.90
39099;DHT22;24844;52.380;7.018;2023-08-06T08:10:58;17.00;99.90
39099;DHT22;24844;52.380;7.018;2023-08-06T08:13:26;16.90;99.90
39099;DHT22;24844;52.380;7.018;2023-08-06T08:15:57;16.90;99.90
39099;DHT22;24844;52.380;7.018;2023-08-06T08:18:22;17.00;99.90
39099;DHT22;24844;52.380;7.018;2023-08-06T08:20:48;17.00;99.90
39099;DHT22;24844;52.380;7.018;2023-08-06T08:23:13;17.20;99.90
39099;DHT22;24844;52.380;7.018;2023-08-06T08:25:39;17.10;99.90
39099;DHT22;24844;52.380;7.018;2023-08-06T08:28:05;17.20;99.90
39099;DHT22;24844;52.380;7.018;2023-08-06T08:30:30;17.50;99.90
39099;DHT22;24844;52.380;7.018;2023-08-06T08:32:56;18.10;99.90
39099;DHT22;24844;52.380;7.018;2023-08-06T08:35:21;18.90;99.90
39099;DHT22;24844;52.380;7.018;2023-08-06T08:37:47;19.60;99.90
39099;DHT22;24844;52.380;7.018;2023-08-06T08:40:14;20.30;99.90
39099;DHT22;24844;52.380;7.018;2023-08-06T08:42:40;20.30;99.90
39099;DHT22;24844;52.380;7.018;2023-08-06T08:45:13;20.20;99.90
39099;DHT22;24844;52.380;7.018;2023-08-06T08:47:42;20.10;99.90
39099;DHT22;24844;52.380;7.018;2023-08-06T08:50:12;20.00;99.90
39099;DHT22;24844;52.380;7.018;2023-08-06T08:52:40;19.40;99.90
39099;DHT22;24844;52.380;7.018;2023-08-06T08:55:07;19.30;99.90
39099;DHT22;24844;52.380;7.018;2023-08-06T08:57:33;19.20;99.90
39099;DHT22;24844;52.380;7.018;2023-08-06T08:59:58;19.60;99.90
39099;DHT22;24844;52.380;7.018;2023-08-06T09:02:27;19.30;99.90
39099;DHT22;24844;52.380;7.018;2023-08-06T09:04:57;19.10;99.90
39099;DHT22;24844;52.380;7.018;2023-08-06T09:07:25;19.10;99.90
39099;DHT22;24844;52.380;7.018;2023-08-06T09:09:52;18.90;99.90
39099;DHT22;24844;52.380;7.018;2023-08-06T09:12:18;19.00;99.90
39099;DHT22;24844;52.380;7.018;2023-08-06T09:14:44;19.30;99.90
39099;DHT22;24844;52.380;7.018;2023-08-06T09:17:09;19.20;99.90
39099;DHT22;24844;52.380;7.018;2023-08-06T09:19:42;19.00;99.90
39099;DHT22;24844;52.380;7.018;2023-08-06T09:22:11;18.80;99.90
39099;DHT22;24844;52.380;7.018;2023-08-06T09:24:39;19.10;99.90
39099;DHT22;24844;52.380;7.018;2023-08-06T09:27:11;19.20;99.90
39099;DHT22;24844;52.380;7.018;2023-08-06T09:29:43;19.00;99.90
39099;DHT22;24844;52.380;7.018;2023-08-06T09:32:10;18.90;99.90
39099;DHT22;24844;52.380;7.018;2023-08-06T09:34:39;18.90;99.90
39099;DHT22;24844;52.380;7.018;2023-08-06T09:37:05;18.90;99.90
39099;DHT22;24844;52.380;7.018;2023-08-06T09:39:31;18.60;99.90
39099;DHT22;24844;52.380;7.018;2023-08-06T09:41:58;18.50;99.90
39099;DHT22;24844;52.380;7.018;2023-08-06T09:44:26;18.60;99.90
39099;DHT22;24844;52.380;7.018;2023-08-06T09:46:56;18.70;99.90
39099;DHT22;24844;52.380;7.018;2023-08-06T09:49:26;18.90;99.90
39099;DHT22;24844;52.380;7.018;2023-08-06T09:51:53;18.90;99.90
39099;DHT22;24844;52.380;7.018;2023-08-06T09:54:23;18.90;99.90
39099;DHT22;24844;52.380;7.018;2023-08-06T09:56:49;18.80;99.90
39099;DHT22;24844;52.380;7.018;2023-08-06T09:59:15;18.50;99.90
39099;DHT22;24844;52.380;7.018;2023-08-06T10:01:41;18.50;99.90
39099;DHT22;24844;52.380;7.018;2023-08-06T10:04:07;18.40;99.90
39099;DHT22;24844;52.380;7.018;2023-08-06T10:06:34;18.50;99.90
39099;DHT22;24844;52.380;7.018;2023-08-06T10:09:06;18.60;99.90
39099;DHT22;24844;52.380;7.018;2023-08-06T10:11:31;18.80;99.90
39099;DHT22;24844;52.380;7.018;2023-08-06T10:16:47;19.10;99.90
39099;DHT22;24844;52.380;7.018;2023-08-06T10:19:13;19.40;99.90
39099;DHT22;24844;52.380;7.018;2023-08-06T10:21:40;19.40;99.90
39099;DHT22;24844;52.380;7.018;2023-08-06T10:24:09;19.60;99.90
39099;DHT22;24844;52.380;7.018;2023-08-06T10:26:36;19.70;99.90
39099;DHT22;24844;52.380;7.018;2023-08-06T10:29:02;20.00;99.90
39099;DHT22;24844;52.380;7.018;2023-08-06T10:31:54;20.00;99.90
39099;DHT22;24844;52.380;7.018;2023-08-06T10:34:22;20.50;99.90
39099;DHT22;24844;52.380;7.018;2023-08-06T10:36:48;20.50;99.90
39099;DHT22;24844;52.380;7.018;2023-08-06T10:39:14;20.60;99.90
39099;DHT22;24844;52.380;7.018;2023-08-06T10:41:42;20.70;99.90
39099;DHT22;24844;52.380;7.018;2023-08-06T10:44:09;21.20;99.90
39099;DHT22;24844;52.380;7.018;2023-08-06T10:46:36;21.10;99.90
39099;DHT22;24844;52.380;7.018;2023-08-06T10:49:04;20.90;99.90
39099;DHT22;24844;52.380;7.018;2023-08-06T10:51:30;20.90;99.90
39099;DHT22;24844;52.380;7.018;2023-08-06T10:53:56;20.80;99.90
39099;DHT22;24844;52.380;7.018;2023-08-06T10:56:24;20.80;99.90
39099;DHT22;24844;52.380;7.018;2023-08-06T10:58:56;20.80;99.90
39099;DHT22;24844;52.380;7.018;2023-08-06T11:01:23;20.90;99.90
39099;DHT22;24844;52.380;7.018;2023-08-06T11:03:49;20.70;99.90
39099;DHT22;24844;52.380;7.018;2023-08-06T11:06:22;20.70;99.90
39099;DHT22;24844;52.380;7.018;2023-08-06T11:08:50;20.60;99.90
39099;DHT22;24844;52.380;7.018;2023-08-06T11:11:16;20.70;99.90
39099;DHT22;24844;52.380;7.018;2023-08-06T11:13:43;20.60;99.90
39099;DHT22;24844;52.380;7.018;2023-08-06T11:16:12;20.80;99.90
39099;DHT22;24844;52.380;7.018;2023-08-06T11:18:40;20.70;99.90
39099;DHT22;24844;52.380;7.018;2023-08-06T11:21:06;20.70;99.90
39099;DHT22;24844;52.380;7.018;2023-08-06T11:23:34;20.60;99.90
39099;DHT22;24844;52.380;7.018;2023-08-06T11:26:00;20.60;99.90
39099;DHT22;24844;52.380;7.018;2023-08-06T11:28:26;20.80;99.90
39099;DHT22;24844;52.380;7.018;2023-08-06T11:30:52;20.80;99.90
39099;DHT22;24844;52.380;7.018;2023-08-06T11:33:27;20.50;99.90
39099;DHT22;24844;52.380;7.018;2023-08-06T11:35:57;20.50;99.90
39099;DHT22;24844;52.380;7.018;2023-08-06T11:38:27;20.30;99.90
39099;DHT22;24844;52.380;7.018;2023-08-06T11:40:54;20.20;99.90
39099;DHT22;24844;52.380;7.018;2023-08-06T11:43:20;20.20;99.90
39099;DHT22;24844;52.380;7.018;2023-08-06T11:45:52;20.20;99.90
39099;DHT22;24844;52.380;7.018;2023-08-06T11:48:20;20.60;99.90
39099;DHT22;24844;52.380;7.018;2023-08-06T11:50:45;20.70;99.90
39099;DHT22;24844;52.380;7.018;2023-08-06T11:53:14;20.40;99.90
39099;DHT22;24844;52.380;7.018;2023-08-06T11:55:41;20.60;99.90
39099;DHT22;24844;52.380;7.018;2023-08-06T11:58:06;20.90;99.90
39099;DHT22;24844;52.380;7.018;2023-08-06T12:00:32;21.00;99.90
39099;DHT22;24844;52.380;7.018;2023-08-06T12:02:58;20.50;99.90
39099;DHT22;24844;52.380;7.018;2023-08-06T12:05:29;20.10;99.90
39099;DHT22;24844;52.380;7.018;2023-08-06T12:07:59;20.30;99.90
39099;DHT22;24844;52.380;7.018;2023-08-06T12:10:27;19.80;99.90
39099;DHT22;24844;52.380;7.018;2023-08-06T12:12:53;19.60;99.90
39099;DHT22;24844;52.380;7.018;2023-08-06T12:15:19;19.70;99.90
39099;DHT22;24844;52.380;7.018;2023-08-06T12:17:45;19.70;99.90
39099;DHT22;24844;52.380;7.018;2023-08-06T12:20:11;19.70;99.90
39099;DHT22;24844;52.380;7.018;2023-08-06T12:22:37;19.90;99.90
39099;DHT22;24844;52.380;7.018;2023-08-06T12:25:06;20.10;99.90
39099;DHT22;24844;52.380;7.018;2023-08-06T12:27:36;20.20;99.90
39099;DHT22;24844;52.380;7.018;2023-08-06T12:30:02;20.30;99.90
39099;DHT22;24844;52.380;7.018;2023-08-06T12:32:29;20.40;99.90
39099;DHT22;24844;52.380;7.018;2023-08-06T12:34:54;20.90;99.90
39099;DHT22;24844;52.380;7.018;2023-08-06T12:37:20;20.80;99.90
39099;DHT22;24844;52.380;7.018;2023-08-06T12:39:46;20.90;99.90
39099;DHT22;24844;52.380;7.018;2023-08-06T12:42:11;20.70;99.90
39099;DHT22;24844;52.380;7.018;2023-08-06T12:44:38;20.70;99.90
39099;DHT22;24844;52.380;7.018;2023-08-06T12:47:04;20.50;99.90
39099;DHT22;24844;52.380;7.018;2023-08-06T12:49:29;20.50;99.90
39099;DHT22;24844;52.380;7.018;2023-08-06T12:51:56;20.80;99.90
39099;DHT22;24844;52.380;7.018;2023-08-06T12:54:22;21.00;99.90
39099;DHT22;24844;52.380;7.018;2023-08-06T12:56:48;20.90;99.90
39099;DHT22;24844;52.380;7.018;2023-08-06T12:59:15;20.90;99.90
39099;DHT22;24844;52.380;7.018;2023-08-06T13:01:42;21.10;99.90
39099;DHT22;24844;52.380;7.018;2023-08-06T13:04:08;21.20;99.90
39099;DHT22;24844;52.380;7.018;2023-08-06T13:06:33;21.10;99.90
39099;DHT22;24844;52.380;7.018;2023-08-06T13:09:12;21.40;99.90
39099;DHT22;24844;52.380;7.018;2023-08-06T13:11:39;21.60;99.90
39099;DHT22;24844;52.380;7.018;2023-08-06T13:14:07;22.00;99.90
39099;DHT22;24844;52.380;7.018;2023-08-06T13:16:34;21.90;99.90
39099;DHT22;24844;52.380;7.018;2023-08-06T13:19:00;22.10;99.90
39099;DHT22;24844;52.380;7.018;2023-08-06T13:21:33;22.30;99.90
39099;DHT22;24844;52.380;7.018;2023-08-06T13:24:00;22.40;99.90
39099;DHT22;24844;52.380;7.018;2023-08-06T13:26:27;22.60;99.90
39099;DHT22;24844;52.380;7.018;2023-08-06T13:28:52;23.10;99.90
39099;DHT22;24844;52.380;7.018;2023-08-06T13:31:18;23.00;99.90
39099;DHT22;24844;52.380;7.018;2023-08-06T13:33:43;23.20;99.90
39099;DHT22;24844;52.380;7.018;2023-08-06T13:36:09;23.20;99.90
39099;DHT22;24844;52.380;7.018;2023-08-06T13:38:35;23.80;99.90
39099;DHT22;24844;52.380;7.018;2023-08-06T13:41:01;23.90;99.90
39099;DHT22;24844;52.380;7.018;2023-08-06T13:43:27;23.80;99.90
39099;DHT22;24844;52.380;7.018;2023-08-06T13:45:53;24.10;99.90
39099;DHT22;24844;52.380;7.018;2023-08-06T13:48:19;23.90;99.90
39099;DHT22;24844;52.380;7.018;2023-08-06T13:50:44;24.00;99.90
39099;DHT22;24844;52.380;7.018;2023-08-06T13:53:10;23.90;99.90
39099;DHT22;24844;52.380;7.018;2023-08-06T13:55:36;24.20;99.90
39099;DHT22;24844;52.380;7.018;2023-08-06T13:58:01;24.30;99.90
39099;DHT22;24844;52.380;7.018;2023-08-06T14:00:27;24.10;99.90
39099;DHT22;24844;52.380;7.018;2023-08-06T14:02:52;24.40;99.90
39099;DHT22;24844;52.380;7.018;2023-08-06T14:05:18;24.20;99.90
39099;DHT22;24844;52.380;7.018;2023-08-06T14:07:43;24.00;99.90
39099;DHT22;24844;52.380;7.018;2023-08-06T14:10:09;24.40;99.90
39099;DHT22;24844;52.380;7.018;2023-08-06T14:12:35;24.30;99.90
39099;DHT22;24844;52.380;7.018;2023-08-06T14:15:01;24.20;99.90
39099;DHT22;24844;52.380;7.018;2023-08-06T14:17:28;24.00;99.90
39099;DHT22;24844;52.380;7.018;2023-08-06T14:19:54;23.60;99.90
39099;DHT22;24844;52.380;7.018;2023-08-06T14:22:21;23.20;99.90
39099;DHT22;24844;52.380;7.018;2023-08-06T14:24:47;22.80;99.90
39099;DHT22;24844;52.380;7.018;2023-08-06T14:27:12;22.80;99.90
39099;DHT22;24844;52.380;7.018;2023-08-06T14:29:38;22.70;99.90
39099;DHT22;24844;52.380;7.018;2023-08-06T14:32:04;22.40;99.90
39099;DHT22;24844;52.380;7.018;2023-08-06T14:34:29;22.70;99.90
39099;DHT22;24844;52.380;7.018;2023-08-06T14:36:55;22.40;99.90
39099;DHT22;24844;52.380;7.018;2023-08-06T14:39:20;22.20;99.90
39099;DHT22;24844;52.380;7.018;2023-08-06T14:41:46;22.00;99.90
39099;DHT22;24844;52.380;7.018;2023-08-06T14:44:12;22.00;99.90
39099;DHT22;24844;52.380;7.018;2023-08-06T14:46:38;21.90;99.90
39099;DHT22;24844;52.380;7.018;2023-08-06T14:49:03;21.70;99.90
39099;DHT22;24844;52.380;7.018;2023-08-06T14:51:29;21.50;99.90
39099;DHT22;24844;52.380;7.018;2023-08-06T14:53:55;21.40;99.90
39099;DHT22;24844;52.380;7.018;2023-08-06T14:56:20;21.10;99.90
39099;DHT22;24844;52.380;7.018;2023-08-06T14:58:46;20.80;99.90
39099;DHT22;24844;52.380;7.018;2023-08-06T15:01:12;20.70;99.90
39099;DHT22;24844;52.380;7.018;2023-08-06T15:03:38;20.70;99.90
39099;DHT22;24844;52.380;7.018;2023-08-06T15:06:03;20.60;99.90
39099;DHT22;24844;52.380;7.018;2023-08-06T15:08:29;20.40;99.90
39099;DHT22;24844;52.380;7.018;2023-08-06T15:10:54;20.20;99.90
39099;DHT22;24844;52.380;7.018;2023-08-06T15:13:20;20.30;99.90
39099;DHT22;24844;52.380;7.018;2023-08-06T15:15:47;20.20;99.90
39099;DHT22;24844;52.380;7.018;2023-08-06T15:18:12;20.10;99.90
39099;DHT22;24844;52.380;7.018;2023-08-06T15:20:38;20.20;99.90
39099;DHT22;24844;52.380;7.018;2023-08-06T15:23:04;20.40;99.90
39099;DHT22;24844;52.380;7.018;2023-08-06T15:25:29;19.80;99.90
39099;DHT22;24844;52.380;7.018;2023-08-06T15:27:55;19.60;99.90
39099;DHT22;24844;52.380;7.018;2023-08-06T15:30:20;19.50;99.90
39099;DHT22;24844;52.380;7.018;2023-08-06T15:32:46;19.20;99.90